createdAt,value
2023-04-05T00:00:39.282Z,101002.84
2023-04-05T00:05:41.103Z,100995.06
2023-04-05T00:10:42.906Z,100999.06
2023-04-05T00:15:44.708Z,100988.44
2023-04-05T00:20:46.304Z,100982.00
2023-04-05T00:25:48.073Z,100982.66
2023-04-05T00:30:52.288Z,100983.59
2023-04-05T00:35:54.035Z,100982.56
2023-04-05T00:40:55.802Z,100973.19
2023-04-05T00:45:57.552Z,100975.47
2023-04-05T00:50:59.899Z,100971.19
2023-04-05T00:56:02.114Z,100961.47
2023-04-05T01:01:16.512Z,100976.31
2023-04-05T01:06:39.216Z,100966.28
2023-04-05T01:11:42.904Z,100957.59
2023-04-05T01:16:45.534Z,100962.38
2023-04-05T01:22:18.349Z,100958.69
2023-04-05T01:27:22.537Z,100951.13
2023-04-05T01:32:36.617Z,100955.47
2023-04-05T01:37:38.978Z,100941.47
2023-04-05T01:42:40.607Z,100933.91
2023-04-05T01:47:43.502Z,100938.53
2023-04-05T01:52:45.579Z,100929.56
2023-04-05T01:57:47.178Z,100926.72
2023-04-05T02:02:48.929Z,100928.59
2023-04-05T02:07:50.733Z,100922.84
2023-04-05T02:12:52.374Z,100930.69
2023-04-05T02:17:54.151Z,100931.09
2023-04-05T02:22:56.834Z,100932.22
2023-04-05T02:27:58.440Z,100935.63
2023-04-05T02:33:00.102Z,100926.53
2023-04-05T02:38:04.659Z,100923.06
2023-04-05T02:43:08.943Z,100926.16
2023-04-05T02:48:10.656Z,100924.56
2023-04-05T02:53:13.085Z,100920.50
2023-04-05T02:58:14.761Z,100910.75
2023-04-05T03:03:22.121Z,100921.50
2023-04-05T03:08:24.096Z,100914.13
2023-04-05T03:13:35.949Z,100916.69
2023-04-05T03:18:40.792Z,100916.69
2023-04-05T03:23:48.503Z,100909.13
2023-04-05T03:28:54.121Z,100895.88
2023-04-05T03:34:02.030Z,100901.81
2023-04-05T03:39:13.370Z,100904.75
2023-04-05T03:44:15.016Z,100903.03
2023-04-05T03:49:16.788Z,100897.00
2023-04-05T03:54:19.370Z,100900.59
2023-04-05T03:59:21.297Z,100901.53
2023-04-05T04:04:23.777Z,100900.13
2023-04-05T04:09:25.735Z,100912.91
2023-04-05T04:14:27.430Z,100900.31
2023-04-05T04:19:32.099Z,100899.25
2023-04-05T04:24:46.192Z,100911.75
2023-04-05T04:30:11.856Z,100906.66
2023-04-05T04:35:47.125Z,100909.31
2023-04-05T04:41:17.676Z,100910.06
2023-04-05T04:46:43.203Z,100903.31
2023-04-05T04:51:59.700Z,100893.78
2023-04-05T04:57:02.453Z,100900.97
2023-04-05T05:02:04.034Z,100907.91
2023-04-05T05:07:05.897Z,100903.03
2023-04-05T05:12:08.791Z,100908.75
2023-04-05T05:17:10.410Z,100904.88
2023-04-05T05:22:12.086Z,100903.34
2023-04-05T05:27:14.723Z,100900.47
2023-04-05T05:32:17.053Z,100894.50
2023-04-05T05:37:18.812Z,100903.75
2023-04-05T05:42:21.277Z,100905.50
2023-04-05T05:47:23.044Z,100906.59
2023-04-05T05:52:24.964Z,100894.56
2023-04-05T05:57:27.365Z,100897.00
2023-04-05T06:02:28.992Z,100900.13
2023-04-05T06:07:30.829Z,100900.22
2023-04-05T06:12:32.807Z,100892.47
2023-04-05T06:17:36.278Z,100910.84
2023-04-05T06:22:40.757Z,100913.88
2023-04-05T06:27:42.604Z,100908.94
2023-04-05T06:32:44.619Z,100909.38
2023-04-05T06:37:46.275Z,100899.47
2023-04-05T06:42:47.874Z,100900.03
2023-04-05T06:47:55.004Z,100902.75
2023-04-05T06:52:56.906Z,100892.75
2023-04-05T06:57:58.516Z,100903.03
2023-04-05T07:03:00.290Z,100899.41
2023-04-05T07:08:01.916Z,100901.94
2023-04-05T07:13:03.613Z,100903.94
2023-04-05T07:18:05.558Z,100890.47
2023-04-05T07:23:07.438Z,100893.19
2023-04-05T07:28:09.038Z,100889.59
2023-04-05T07:33:11.071Z,100891.44
2023-04-05T07:38:12.784Z,100885.25
2023-04-05T07:43:14.385Z,100895.75
2023-04-05T07:48:17.042Z,100887.75
2023-04-05T07:53:18.634Z,100891.03
2023-04-05T07:58:22.596Z,100884.25
2023-04-05T08:03:24.401Z,100881.84
2023-04-05T08:08:26.226Z,100879.06
2023-04-05T08:13:27.854Z,100876.94
2023-04-05T08:18:29.498Z,100862.78
2023-04-05T08:23:31.937Z,100872.41
2023-04-05T08:28:34.395Z,100868.31
2023-04-05T08:33:35.962Z,100871.25
2023-04-05T08:38:37.609Z,100854.75
2023-04-05T08:43:53.236Z,100862.88
2023-04-05T08:48:54.886Z,100865.03
2023-04-05T08:53:56.483Z,100860.31
2023-04-05T08:59:08.536Z,100867.09
2023-04-05T09:04:14.548Z,100855.75
2023-04-05T09:09:17.078Z,100866.53
2023-04-05T09:14:19.238Z,100860.56
2023-04-05T09:19:20.960Z,100856.06
2023-04-05T09:24:41.861Z,100868.63
2023-04-05T09:29:47.836Z,100863.44
2023-04-05T09:34:52.514Z,100859.09
2023-04-05T09:40:04.310Z,100860.31
2023-04-05T09:45:07.280Z,100854.50
2023-04-05T09:50:20.262Z,100860.09
2023-04-05T09:55:28.834Z,100851.63
2023-04-05T10:00:32.367Z,100850.16
2023-04-05T10:05:34.149Z,100850.63
2023-04-05T10:10:38.418Z,100847.28
2023-04-05T10:15:41.398Z,100844.94
2023-04-05T10:20:47.419Z,100844.94
2023-04-05T10:25:53.163Z,100834.63
2023-04-05T10:31:30.417Z,100837.41
2023-04-05T10:36:56.681Z,100818.63
2023-04-05T10:42:21.007Z,100816.31
2023-04-05T10:47:23.748Z,100819.47
2023-04-05T10:52:26.388Z,100812.34
2023-04-05T10:57:28.198Z,100818.78
2023-04-05T11:02:30.406Z,100824.19
2023-04-05T11:07:45.473Z,100815.41
2023-04-05T11:12:47.090Z,100820.84
2023-04-05T11:18:08.889Z,100814.88
2023-04-05T11:23:12.232Z,100810.50
2023-04-05T11:28:25.050Z,100807.75
2023-04-05T11:33:37.724Z,100812.81
2023-04-05T11:38:42.391Z,100807.16
2023-04-05T11:43:45.074Z,100806.88
2023-04-05T11:48:50.401Z,100804.34
2023-04-05T11:53:51.982Z,100800.78
2023-04-05T11:58:58.418Z,100794.72
2023-04-05T12:04:00.841Z,100796.16
2023-04-05T12:09:07.536Z,100783.94
2023-04-05T12:14:09.236Z,100795.16
2023-04-05T12:19:11.065Z,100790.84
2023-04-05T12:24:12.829Z,100793.22
2023-04-05T12:29:14.462Z,100787.88
2023-04-05T12:34:23.903Z,100780.91
2023-04-05T12:39:29.594Z,100776.84
2023-04-05T12:44:31.685Z,100769.13
2023-04-05T12:49:39.608Z,100771.28
2023-04-05T12:54:41.229Z,100763.75
2023-04-05T12:59:42.824Z,100760.13
2023-04-05T13:04:44.442Z,100756.31
2023-04-05T13:09:46.037Z,100747.78
2023-04-05T13:14:47.723Z,100755.00
2023-04-05T13:19:49.297Z,100744.50
2023-04-05T13:24:52.158Z,100740.97
2023-04-05T13:29:53.915Z,100744.16
2023-04-05T13:34:55.716Z,100744.78
2023-04-05T13:39:57.390Z,100746.25
2023-04-05T13:44:59.091Z,100743.72
2023-04-05T13:50:00.868Z,100734.50
2023-04-05T13:55:03.765Z,100729.13
2023-04-05T14:00:08.961Z,100731.31
2023-04-05T14:05:15.462Z,100734.91
2023-04-05T14:10:17.763Z,100727.16
2023-04-05T14:15:19.734Z,100733.63
2023-04-05T14:20:21.506Z,100727.88
2023-04-05T14:25:23.169Z,100718.38
2023-04-05T14:30:24.854Z,100719.97
2023-04-05T14:35:26.688Z,100711.84
2023-04-05T14:40:28.451Z,100712.34
2023-04-05T14:45:30.259Z,100708.28
2023-04-05T14:50:32.590Z,100711.84
2023-04-05T14:55:34.272Z,100709.91
2023-04-05T15:00:36.022Z,100700.25
2023-04-05T15:05:37.741Z,100694.91
2023-04-05T15:10:40.505Z,100699.81
2023-04-05T15:15:42.360Z,100696.66
2023-04-05T15:20:44.124Z,100694.69
2023-04-05T15:25:46.587Z,100691.19
2023-04-05T15:30:48.344Z,100686.03
2023-04-05T15:35:50.043Z,100687.91
2023-04-05T15:40:52.639Z,100695.53
2023-04-05T15:45:54.442Z,100677.19
2023-04-05T15:50:56.195Z,100677.28
2023-04-05T15:55:58.395Z,100687.88
2023-04-05T16:01:00.193Z,100678.97
2023-04-05T16:06:02.276Z,100682.50
2023-04-05T16:11:04.061Z,100689.56
2023-04-05T16:16:06.825Z,100684.38
2023-04-05T16:21:08.619Z,100680.69
2023-04-05T16:26:10.324Z,100681.84
2023-04-05T16:31:12.476Z,100683.06
2023-04-05T16:36:14.229Z,100687.38
2023-04-05T16:41:16.266Z,100685.47
2023-04-05T16:46:18.628Z,100681.88
2023-04-05T16:51:20.398Z,100686.47
2023-04-05T16:56:22.864Z,100678.97
2023-04-05T17:01:24.887Z,100681.38
2023-04-05T17:06:27.919Z,100684.53
2023-04-05T17:11:30.099Z,100686.75
2023-04-05T17:16:31.776Z,100686.28
2023-04-05T17:21:35.359Z,100688.31
2023-04-05T17:26:37.085Z,100692.34
2023-04-05T17:31:39.600Z,100694.75
2023-04-05T17:36:41.444Z,100703.72
2023-04-05T17:41:45.615Z,100704.72
2023-04-05T17:46:54.299Z,100709.78
2023-04-05T17:52:04.820Z,100700.63
2023-04-05T17:57:07.014Z,100705.09
2023-04-05T18:02:11.012Z,100715.78
2023-04-05T18:07:13.002Z,100715.66
2023-04-05T18:12:14.686Z,100722.06
2023-04-05T18:17:17.844Z,100723.66
2023-04-05T18:22:20.267Z,100722.06
2023-04-05T18:27:21.973Z,100737.47
2023-04-05T18:32:23.873Z,100741.09
2023-04-05T18:37:25.678Z,100736.84
2023-04-05T18:42:27.352Z,100747.41
2023-04-05T18:47:29.169Z,100757.34
2023-04-05T18:52:34.136Z,100755.75
2023-04-05T18:57:36.052Z,100752.22
2023-04-05T19:02:37.885Z,100748.25
2023-04-05T19:07:39.670Z,100751.75
2023-04-05T19:12:41.639Z,100752.84
2023-04-05T19:17:43.383Z,100759.16
2023-04-05T19:22:45.268Z,100772.56
2023-04-05T19:27:47.006Z,100767.88
2023-04-05T19:32:49.022Z,100774.97
2023-04-05T19:37:50.906Z,100776.94
2023-04-05T19:42:52.885Z,100759.25
2023-04-05T19:47:55.624Z,100777.41
2023-04-05T19:52:57.743Z,100777.09
2023-04-05T19:58:01.426Z,100773.69
2023-04-05T20:03:18.656Z,100774.19
2023-04-05T20:08:20.422Z,100775.06
2023-04-05T20:13:22.202Z,100768.06
2023-04-05T20:18:25.943Z,100765.47
2023-04-05T20:23:29.318Z,100758.97
2023-04-05T20:28:41.973Z,100761.63
2023-04-05T20:33:47.142Z,100757.97
2023-04-05T20:38:50.059Z,100757.13
2023-04-05T20:43:52.658Z,100749.50
2023-04-05T20:48:55.092Z,100750.81
2023-04-05T20:53:57.125Z,100742.91
2023-04-05T20:58:59.147Z,100744.66
2023-04-05T21:04:01.209Z,100733.72
2023-04-05T21:09:03.105Z,100734.94
2023-04-05T21:14:04.985Z,100740.84
2023-04-05T21:19:07.950Z,100733.69
2023-04-05T21:24:10.133Z,100737.84
2023-04-05T21:29:11.913Z,100736.06
2023-04-05T21:34:13.590Z,100732.63
2023-04-05T21:39:15.368Z,100722.44
2023-04-05T21:44:17.033Z,100719.50
2023-04-05T21:49:18.747Z,100722.59
2023-04-05T21:54:20.452Z,100722.09
2023-04-05T21:59:22.449Z,100723.72
2023-04-05T22:04:26.540Z,100712.69
2023-04-05T22:09:28.587Z,100715.91
2023-04-05T22:14:30.673Z,100716.78
2023-04-05T22:19:32.416Z,100710.22
2023-04-05T22:24:34.106Z,100709.69
2023-04-05T22:29:36.139Z,100712.78
2023-04-05T22:34:37.899Z,100708.84
2023-04-05T22:39:39.575Z,100705.16
2023-04-05T22:44:41.518Z,100706.56
2023-04-05T22:49:43.301Z,100708.47
2023-04-05T22:54:44.961Z,100703.91
2023-04-05T22:59:46.749Z,100705.16
2023-04-05T23:04:48.566Z,100703.91
2023-04-05T23:09:50.250Z,100706.22
2023-04-05T23:14:52.048Z,100701.38
2023-04-05T23:19:53.805Z,100702.00
2023-04-05T23:24:55.652Z,100698.81
2023-04-05T23:29:57.483Z,100698.81
2023-04-05T23:34:59.147Z,100706.69
2023-04-05T23:40:00.920Z,100703.69
2023-04-05T23:45:04.304Z,100700.91
2023-04-05T23:50:06.752Z,100693.19
2023-04-05T23:55:08.940Z,100698.16
